Time;durP1;ratioP1;P1;durP2;ratioP2;P2;SDS_P1;SDS_P2;PMS_P1;PMS_P2;Temp;Humidity;BMP_temperature;BMP_pressure;BME280_temperature;BME280_humidity;BME280_pressure;Samples;Min_cycle;Max_cycle;Signal;HPM_P1;HPM_P2
2022/07/06 00:00:59;;;;;;;4.07;1.88;;;;;15.60;94799.00;;;;7392671;19;20140;-77
2022/07/06 00:03:49;;;;;;;3.00;2.10;;;;;15.50;94796.00;;;;7388907;19;20155;-77
2022/07/06 00:06:26;;;;;;;2.00;1.80;;;;;15.50;94786.00;;;;7389653;19;20485;-76
2022/07/06 00:09:01;;;;;;;6.13;1.90;;;;;15.50;94788.00;;;;7393771;19;20139;-77
2022/07/06 00:11:29;;;;;;;3.67;2.05;;;;;15.30;94786.00;;;;7392342;19;20126;-78
2022/07/06 00:13:57;;;;;;;4.35;2.00;;;;;15.30;94784.00;;;;7392868;19;20136;-77
2022/07/06 00:16:31;;;;;;;4.32;1.92;;;;;15.30;94786.00;;;;7393304;19;20140;-78
2022/07/06 00:19:02;;;;;;;2.13;1.70;;;;;15.30;94784.00;;;;7394829;19;20634;-76
2022/07/06 00:21:34;;;;;;;4.72;2.17;;;;;15.20;94785.00;;;;7397181;19;20590;-77
2022/07/06 00:24:08;;;;;;;2.05;1.73;;;;;15.20;94783.00;;;;7394752;19;20141;-77
2022/07/06 00:26:38;;;;;;;5.57;2.05;;;;;15.10;94781.00;;;;7393762;19;20133;-78
2022/07/06 00:29:08;;;;;;;3.53;1.80;;;;;15.20;94778.00;;;;7389457;19;20121;-78
2022/07/06 00:31:42;;;;;;;5.93;1.95;;;;;15.20;94786.00;;;;7394924;19;20125;-78
2022/07/06 00:34:12;;;;;;;5.88;1.95;;;;;15.20;94786.00;;;;7391323;19;20129;-78
2022/07/06 00:36:40;;;;;;;2.00;1.80;;;;;15.00;94790.00;;;;7385469;19;20137;-78
2022/07/06 00:39:14;;;;;;;2.65;1.75;;;;;15.00;94793.00;;;;7391746;19;20131;-78
2022/07/06 00:41:45;;;;;;;5.30;2.15;;;;;14.90;94796.00;;;;7392199;19;20133;-78
2022/07/06 00:44:14;;;;;;;7.93;1.98;;;;;14.70;94789.00;;;;7391854;19;20599;-78
2022/07/06 00:46:48;;;;;;;4.60;2.10;;;;;14.80;94776.00;;;;7390510;19;20139;-78
2022/07/06 00:52:08;;;;;;;2.40;2.05;;;;;14.90;94790.00;;;;7391263;19;20140;-78
2022/07/06 00:54:41;;;;;;;2.83;1.60;;;;;14.90;94782.00;;;;7389177;19;20647;-78
2022/07/06 00:57:15;;;;;;;4.22;1.90;;;;;14.70;94784.00;;;;7390709;19;20141;-78
2022/07/06 00:59:43;;;;;;;1.88;1.65;;;;;14.70;94779.00;;;;7393187;19;20129;-78
2022/07/06 01:02:13;;;;;;;2.55;2.00;;;;;14.80;94780.00;;;;7390400;19;20121;-74
2022/07/06 01:04:56;;;;;;;4.35;2.10;;;;;14.70;94780.00;;;;7387685;19;20263;-73
2022/07/06 01:07:32;;;;;;;2.13;1.92;;;;;14.70;94776.00;;;;7390768;19;20143;-71
2022/07/06 01:10:07;;;;;;;3.65;2.30;;;;;14.70;94778.00;;;;7390748;19;20148;-73
2022/07/06 01:12:36;;;;;;;3.70;2.10;;;;;14.80;94784.00;;;;7393314;19;20627;-72
2022/07/06 01:15:13;;;;;;;4.93;2.10;;;;;14.70;94779.00;;;;7392108;19;20581;-71
2022/07/06 01:17:48;;;;;;;4.72;2.17;;;;;14.40;94768.00;;;;7391848;19;20212;-72
2022/07/06 01:20:24;;;;;;;2.83;2.08;;;;;14.50;94772.00;;;;7397505;19;20903;-73
2022/07/06 01:22:59;;;;;;;5.03;2.35;;;;;14.30;94772.00;;;;7399470;19;20163;-74
2022/07/06 01:25:27;;;;;;;6.32;2.30;;;;;14.20;94753.00;;;;7398696;19;20143;-72
2022/07/06 01:27:55;;;;;;;5.25;2.40;;;;;14.20;94760.00;;;;7395625;19;20192;-72
2022/07/06 01:30:29;;;;;;;2.53;2.15;;;;;14.10;94759.00;;;;7398176;19;20135;-73
2022/07/06 01:32:57;;;;;;;5.95;2.20;;;;;14.10;94759.00;;;;7397673;19;20129;-72
2022/07/06 01:35:31;;;;;;;6.65;2.30;;;;;14.00;94767.00;;;;7399094;19;20145;-72
2022/07/06 01:38:08;;;;;;;5.55;2.30;;;;;13.90;94763.00;;;;7396423;19;20254;-73
2022/07/06 01:40:38;;;;;;;6.57;2.90;;;;;13.90;94764.00;;;;7397667;19;20165;-74
2022/07/06 01:43:13;;;;;;;3.45;2.53;;;;;13.90;94755.00;;;;7395503;19;20583;-72
2022/07/06 01:45:43;;;;;;;6.28;2.72;;;;;13.80;94767.00;;;;7397017;19;20478;-72
2022/07/06 01:48:14;;;;;;;4.32;2.60;;;;;13.90;94767.00;;;;7392397;19;20137;-75
2022/07/06 01:50:58;;;;;;;4.88;2.58;;;;;13.80;94773.00;;;;7395272;19;20173;-73
2022/07/06 01:53:27;;;;;;;6.82;3.10;;;;;13.80;94765.00;;;;7395850;19;20148;-72
2022/07/06 01:56:03;;;;;;;7.18;2.50;;;;;13.60;94770.00;;;;7396366;19;20128;-73
2022/07/06 01:58:31;;;;;;;7.45;2.80;;;;;13.60;94767.00;;;;7397835;19;20129;-75
2022/07/06 02:01:09;;;;;;;7.63;3.50;;;;;13.60;94761.00;;;;7396846;19;20141;-74
2022/07/06 02:03:51;;;;;;;6.60;3.05;;;;;13.60;94769.00;;;;7395462;19;20631;-74
2022/07/06 02:06:25;;;;;;;5.57;2.88;;;;;13.80;94774.00;;;;7395595;19;20887;-73
2022/07/06 02:09:02;;;;;;;4.32;3.30;;;;;13.60;94766.00;;;;7395422;19;20246;-73
2022/07/06 02:11:34;;;;;;;5.07;2.97;;;;;13.50;94769.00;;;;7394916;19;20181;-74
2022/07/06 02:14:11;;;;;;;4.75;3.20;;;;;13.30;94762.00;;;;7395922;19;20224;-73
2022/07/06 02:16:41;;;;;;;4.20;3.35;;;;;13.30;94762.00;;;;7396074;19;20192;-73
2022/07/06 02:19:17;;;;;;;6.57;3.38;;;;;13.20;94769.00;;;;7393534;19;20632;-74
2022/07/06 02:21:45;;;;;;;5.03;3.72;;;;;13.40;94768.00;;;;7395423;19;20133;-74
2022/07/06 02:24:15;;;;;;;7.65;3.58;;;;;13.50;94763.00;;;;7396221;19;20499;-73
2022/07/06 02:26:51;;;;;;;5.72;3.55;;;;;13.50;94759.00;;;;7395067;19;20157;-72
2022/07/06 02:29:21;;;;;;;6.15;3.78;;;;;13.20;94764.00;;;;7391663;19;20683;-71
2022/07/06 02:31:49;;;;;;;8.70;3.38;;;;;13.20;94764.00;;;;7394981;19;20221;-74
2022/07/06 02:34:25;;;;;;;3.95;3.38;;;;;13.00;94769.00;;;;7395807;19;20129;-72
2022/07/06 02:36:53;;;;;;;4.13;3.70;;;;;13.20;94764.00;;;;7395314;19;20137;-71
2022/07/06 02:39:23;;;;;;;7.47;4.30;;;;;13.40;94767.00;;;;7392082;19;20137;-72
2022/07/06 02:42:01;;;;;;;4.68;3.90;;;;;13.20;94770.00;;;;7395209;19;20133;-73
2022/07/06 02:44:34;;;;;;;7.75;4.55;;;;;13.40;94772.00;;;;7394504;19;20663;-72
2022/07/06 02:47:07;;;;;;;5.05;4.47;;;;;13.10;94765.00;;;;7393776;19;20136;-73
2022/07/06 02:49:42;;;;;;;5.72;4.30;;;;;13.10;94769.00;;;;7392080;19;20129;-73
2022/07/06 02:52:16;;;;;;;6.03;4.32;;;;;13.10;94767.00;;;;7394919;19;20144;-72
2022/07/06 02:54:44;;;;;;;7.90;4.57;;;;;13.10;94764.00;;;;7394971;19;20121;-72
2022/07/06 02:57:11;;;;;;;8.25;5.30;;;;;13.10;94772.00;;;;7394116;19;20595;-73
2022/07/06 02:59:45;;;;;;;7.82;4.82;;;;;13.00;94768.00;;;;7394366;19;20136;-72
2022/07/06 03:02:13;;;;;;;13.90;5.82;;;;;13.00;94775.00;;;;7394251;19;20137;-73
2022/07/06 03:04:40;;;;;;;6.35;4.72;;;;;13.10;94775.00;;;;7392117;19;20168;-73
2022/07/06 03:07:14;;;;;;;6.05;4.97;;;;;13.00;94779.00;;;;7393150;19;20145;-73
2022/07/06 03:09:42;;;;;;;6.32;5.72;;;;;13.00;94780.00;;;;7394197;19;20149;-73
2022/07/06 03:12:09;;;;;;;7.78;5.28;;;;;12.90;94779.00;;;;7392973;19;20129;-72
2022/07/06 03:14:45;;;;;;;11.15;6.18;;;;;13.00;94782.00;;;;7395401;19;20595;-74
2022/07/06 03:17:12;;;;;;;11.65;5.55;;;;;13.00;94788.00;;;;7395488;19;20208;-73
2022/07/06 03:19:40;;;;;;;10.38;5.60;;;;;12.90;94788.00;;;;7394510;19;20164;-73
2022/07/06 03:22:14;;;;;;;8.70;5.75;;;;;12.80;94783.00;;;;7393632;19;20148;-73
2022/07/06 03:24:45;;;;;;;10.82;5.70;;;;;12.80;94785.00;;;;7393788;19;20600;-74
2022/07/06 03:27:12;;;;;;;8.15;6.10;;;;;12.80;94790.00;;;;7393351;19;20617;-73
2022/07/06 03:29:46;;;;;;;6.53;5.10;;;;;12.80;94793.00;;;;7392116;19;20494;-73
2022/07/06 03:32:14;;;;;;;8.50;5.15;;;;;12.60;94790.00;;;;7391105;19;20153;-73
2022/07/06 03:34:44;;;;;;;10.02;5.65;;;;;12.70;94790.00;;;;7392980;19;20617;-74
2022/07/06 03:37:18;;;;;;;9.50;5.60;;;;;12.80;94788.00;;;;7394226;19;20137;-74
2022/07/06 03:39:47;;;;;;;9.15;5.47;;;;;12.70;94795.00;;;;7394533;19;20466;-73
2022/07/06 03:42:15;;;;;;;7.28;5.60;;;;;12.50;94790.00;;;;7389707;19;20603;-73
2022/07/06 03:44:49;;;;;;;7.50;6.13;;;;;12.50;94792.00;;;;7393315;19;20149;-72
2022/07/06 03:47:17;;;;;;;7.30;5.63;;;;;12.60;94794.00;;;;7393254;19;20137;-73
2022/07/06 03:49:46;;;;;;;8.88;5.82;;;;;12.50;94792.00;;;;7392721;19;20129;-72
2022/07/06 03:52:20;;;;;;;6.80;6.10;;;;;12.50;94783.00;;;;7390879;19;20161;-73
2022/07/06 03:54:48;;;;;;;9.93;6.00;;;;;12.50;94794.00;;;;7393171;19;20228;-73
2022/07/06 03:57:16;;;;;;;8.32;6.28;;;;;12.50;94792.00;;;;7392530;19;20588;-71
2022/07/06 03:59:52;;;;;;;6.82;6.10;;;;;12.40;94786.00;;;;7392625;19;20125;-73
2022/07/06 04:02:20;;;;;;;8.88;6.70;;;;;12.50;94795.00;;;;7391164;19;20128;-74
2022/07/06 04:04:49;;;;;;;10.52;7.68;;;;;12.70;94788.00;;;;7391748;19;20648;-73
2022/07/06 04:07:28;;;;;;;15.02;7.07;;;;;12.60;94785.00;;;;7391943;19;20129;-73
2022/07/06 04:09:55;;;;;;;8.93;8.02;;;;;12.70;94790.00;;;;7391170;19;20157;-71
2022/07/06 04:12:25;;;;;;;6.85;6.13;;;;;12.80;94784.00;;;;7389498;19;20173;-74
2022/07/06 04:15:02;;;;;;;8.77;6.40;;;;;12.70;94790.00;;;;7392449;19;20140;-72
2022/07/06 04:20:29;;;;;;;8.10;6.47;;;;;12.80;94795.00;;;;7393421;19;20125;-73
2022/07/06 04:23:00;;;;;;;12.27;7.47;;;;;12.90;94784.00;;;;7389472;19;20124;-72
2022/07/06 04:25:34;;;;;;;12.90;6.57;;;;;12.70;94794.00;;;;7391146;19;20128;-73
2022/07/06 04:28:03;;;;;;;10.40;6.35;;;;;12.80;94791.00;;;;7389993;19;20160;-76
2022/07/06 04:30:33;;;;;;;8.43;6.50;;;;;12.80;94796.00;;;;7390795;19;20157;-72
2022/07/06 04:33:07;;;;;;;9.77;5.95;;;;;12.90;94792.00;;;;7392139;19;20155;-73
2022/07/06 04:35:35;;;;;;;8.50;5.57;;;;;12.90;94796.00;;;;7392333;19;20157;-72
2022/07/06 04:38:05;;;;;;;13.50;6.20;;;;;13.00;94795.00;;;;7391384;19;20157;-74
2022/07/06 04:40:39;;;;;;;8.35;6.40;;;;;13.20;94796.00;;;;7392294;19;20167;-72
2022/07/06 04:43:09;;;;;;;8.10;6.03;;;;;13.20;94797.00;;;;7391807;19;20528;-73
2022/07/06 04:45:36;;;;;;;7.95;5.70;;;;;13.10;94792.00;;;;7391166;19;20137;-73
2022/07/06 04:48:11;;;;;;;8.50;5.53;;;;;13.20;94797.00;;;;7390491;19;20140;-73
2022/07/06 04:50:39;;;;;;;7.10;6.40;;;;;13.40;94803.00;;;;7393278;19;20160;-72
2022/07/06 04:53:07;;;;;;;7.07;5.18;;;;;13.40;94801.00;;;;7392426;19;20124;-72
2022/07/06 04:55:40;;;;;;;9.05;6.03;;;;;13.50;94800.00;;;;7392425;19;20125;-72
2022/07/06 04:58:08;;;;;;;8.23;5.75;;;;;13.60;94795.00;;;;7392332;19;20125;-74
2022/07/06 05:00:38;;;;;;;8.55;5.55;;;;;13.50;94803.00;;;;7393961;19;20200;-72
2022/07/06 05:03:39;;;;;;;6.72;6.03;;;;;13.60;94799.00;;;;7390906;19;20194;-73
2022/07/06 05:06:13;;;;;;;7.68;5.47;;;;;13.60;94796.00;;;;7390443;19;20145;-72
2022/07/06 05:08:47;;;;;;;7.47;5.53;;;;;13.80;94803.00;;;;7388803;19;20132;-72
2022/07/06 05:11:20;;;;;;;8.68;5.03;;;;;13.90;94804.00;;;;7390360;19;20162;-72
2022/07/06 05:13:57;;;;;;;7.72;5.28;;;;;14.00;94800.00;;;;7391034;19;20192;-73
2022/07/06 05:16:24;;;;;;;6.55;4.47;;;;;14.00;94795.00;;;;7390055;19;20482;-72
2022/07/06 05:18:58;;;;;;;6.70;5.13;;;;;13.90;94808.00;;;;7389503;19;20208;-73
2022/07/06 05:21:32;;;;;;;6.68;5.10;;;;;14.30;94807.00;;;;7390323;19;20160;-73
2022/07/06 05:24:00;;;;;;;6.72;4.43;;;;;14.50;94797.00;;;;7387241;19;20128;-73
2022/07/06 05:26:30;;;;;;;11.90;4.60;;;;;14.60;94807.00;;;;7389833;19;20546;-72
2022/07/06 05:29:04;;;;;;;7.80;4.35;;;;;14.80;94809.00;;;;7385746;19;20129;-73
2022/07/06 05:31:32;;;;;;;7.93;4.18;;;;;15.00;94814.00;;;;7389651;19;20519;-73
2022/07/06 05:33:59;;;;;;;6.28;4.40;;;;;14.90;94814.00;;;;7388855;19;20145;-73
2022/07/06 05:36:34;;;;;;;11.57;4.70;;;;;15.00;94809.00;;;;7387523;19;20609;-74
2022/07/06 05:39:02;;;;;;;7.10;4.32;;;;;15.10;94807.00;;;;7388732;19;20137;-74
2022/07/06 05:41:32;;;;;;;5.13;4.43;;;;;15.10;94808.00;;;;7388346;19;20862;-74
2022/07/06 05:44:06;;;;;;;5.95;3.75;;;;;15.00;94813.00;;;;7388061;19;20140;-73
2022/07/06 05:46:36;;;;;;;6.78;4.20;;;;;15.10;94798.00;;;;7387449;19;20141;-73
2022/07/06 05:51:56;;;;;;;7.95;4.20;;;;;15.20;94806.00;;;;7389740;19;20225;-74
2022/07/06 05:54:26;;;;;;;3.58;3.20;;;;;15.20;94811.00;;;;7381329;19;20182;-72
2022/07/06 05:56:54;;;;;;;7.05;3.97;;;;;15.30;94820.00;;;;7391587;19;20176;-72
2022/07/06 05:59:28;;;;;;;7.30;3.50;;;;;15.40;94812.00;;;;7391386;19;20141;-73
2022/07/06 06:01:56;;;;;;;6.03;3.97;;;;;15.70;94815.00;;;;7393570;19;20592;-73
2022/07/06 06:04:26;;;;;;;7.28;4.15;;;;;15.70;94821.00;;;;7388935;19;20634;-74
2022/07/06 06:07:08;;;;;;;4.30;3.40;;;;;15.50;94825.00;;;;7396474;19;20624;-72
2022/07/06 06:09:35;;;;;;;5.65;3.45;;;;;15.50;94828.00;;;;7396110;19;20153;-74
2022/07/06 06:12:12;;;;;;;4.13;3.30;;;;;15.70;94812.00;;;;7397665;19;20640;-73
2022/07/06 06:14:43;;;;;;;5.32;3.60;;;;;15.90;94818.00;;;;7396722;19;20227;-72
2022/07/06 06:17:21;;;;;;;6.32;3.80;;;;;16.00;94818.00;;;;7397661;19;20152;-72
2022/07/06 06:19:48;;;;;;;7.47;3.63;;;;;16.00;94818.00;;;;7398229;19;20157;-73
2022/07/06 06:22:16;;;;;;;5.25;3.58;;;;;16.10;94819.00;;;;7399033;19;20196;-73
2022/07/06 06:24:51;;;;;;;7.97;3.78;;;;;16.00;94815.00;;;;7396320;19;20162;-74
2022/07/06 06:27:21;;;;;;;8.18;3.60;;;;;16.30;94821.00;;;;7396646;19;20155;-72
2022/07/06 06:29:48;;;;;;;10.55;3.58;;;;;16.70;94820.00;;;;7397564;19;20152;-72
2022/07/06 06:32:22;;;;;;;6.07;3.58;;;;;16.60;94826.00;;;;7396958;19;20136;-73
2022/07/06 06:34:50;;;;;;;4.63;3.53;;;;;16.50;94821.00;;;;7397113;19;20136;-73
2022/07/06 06:37:20;;;;;;;4.43;3.47;;;;;16.70;94827.00;;;;7398151;19;20145;-74
2022/07/06 06:39:57;;;;;;;4.78;2.97;;;;;16.90;94822.00;;;;7398284;19;20128;-73
2022/07/06 06:42:27;;;;;;;6.85;3.67;;;;;17.20;94825.00;;;;7394771;19;20174;-73
2022/07/06 06:45:01;;;;;;;8.05;3.80;;;;;17.50;94832.00;;;;7395868;19;20216;-72
2022/07/06 06:47:29;;;;;;;5.63;3.15;;;;;17.50;94831.00;;;;7396774;19;20161;-72
2022/07/06 06:49:56;;;;;;;5.65;3.05;;;;;17.50;94827.00;;;;7397661;19;20615;-73
2022/07/06 06:52:32;;;;;;;6.18;3.70;;;;;17.60;94817.00;;;;7395146;19;20564;-74
2022/07/06 06:55:08;;;;;;;4.95;3.08;;;;;17.70;94823.00;;;;7394703;19;20129;-73
2022/07/06 06:57:43;;;;;;;5.85;3.20;;;;;17.40;94826.00;;;;7398257;19;20598;-72
2022/07/06 07:00:11;;;;;;;5.20;3.10;;;;;17.60;94819.00;;;;7396462;19;20182;-73
2022/07/06 07:02:38;;;;;;;7.53;2.85;;;;;17.70;94822.00;;;;7396213;19;20133;-71
2022/07/06 07:05:19;;;;;;;5.18;2.83;;;;;18.10;94825.00;;;;7393086;19;20174;-74
2022/07/06 07:07:46;;;;;;;7.80;3.10;;;;;18.30;94819.00;;;;7397318;19;20853;-73
2022/07/06 07:10:31;;;;;;;3.83;3.05;;;;;18.60;94818.00;;;;7394586;19;20169;-73
2022/07/06 07:13:04;;;;;;;5.10;2.65;;;;;18.50;94816.00;;;;7397549;19;20595;-73
2022/07/06 07:15:38;;;;;;;5.45;3.00;;;;;18.50;94821.00;;;;7397095;19;20596;-72
2022/07/06 07:18:06;;;;;;;4.85;2.72;;;;;18.50;94822.00;;;;7398944;19;20607;-72
2022/07/06 07:20:42;;;;;;;3.00;2.70;;;;;18.20;94822.00;;;;7396593;19;20140;-72
2022/07/06 07:23:16;;;;;;;4.65;3.13;;;;;18.60;94821.00;;;;7397884;19;20897;-73
2022/07/06 07:25:44;;;;;;;4.95;2.97;;;;;18.80;94820.00;;;;7397658;19;20148;-72
2022/07/06 07:28:11;;;;;;;5.18;2.78;;;;;18.80;94814.00;;;;7396470;19;20144;-73
2022/07/06 07:30:45;;;;;;;6.50;3.35;;;;;19.10;94810.00;;;;7394663;19;20497;-73
2022/07/06 07:33:14;;;;;;;3.30;2.53;;;;;19.40;94802.00;;;;7395045;19;20212;-72
2022/07/06 07:35:44;;;;;;;5.50;3.10;;;;;19.60;94810.00;;;;7395025;19;20132;-72
2022/07/06 07:38:21;;;;;;;4.65;2.95;;;;;19.70;94804.00;;;;7397531;19;20129;-72
2022/07/06 07:40:49;;;;;;;3.40;2.78;;;;;19.50;94809.00;;;;7394468;19;20145;-72
2022/07/06 07:43:17;;;;;;;4.15;3.10;;;;;19.70;94810.00;;;;7395412;19;20136;-73
2022/07/06 07:45:52;;;;;;;7.35;3.05;;;;;19.70;94809.00;;;;7394522;19;20164;-73
2022/07/06 07:48:24;;;;;;;5.55;3.22;;;;;19.90;94806.00;;;;7391628;19;20141;-73
2022/07/06 07:50:52;;;;;;;3.45;2.95;;;;;19.60;94810.00;;;;7394102;19;20153;-73
2022/07/06 07:53:26;;;;;;;2.58;2.38;;;;;19.90;94807.00;;;;7395092;19;20159;-72
2022/07/06 07:55:54;;;;;;;7.35;3.25;;;;;20.00;94806.00;;;;7389981;19;20137;-72
2022/07/06 07:58:21;;;;;;;5.35;3.53;;;;;20.10;94809.00;;;;7391551;19;20145;-73
2022/07/06 08:00:56;;;;;;;5.03;2.78;;;;;20.40;94809.00;;;;7393717;19;20137;-74
2022/07/06 08:03:23;;;;;;;8.93;3.35;;;;;20.40;94811.00;;;;7396194;19;20125;-71
2022/07/06 08:05:51;;;;;;;4.45;2.95;;;;;20.40;94809.00;;;;7391752;19;20658;-73
2022/07/06 08:08:25;;;;;;;7.28;2.85;;;;;20.80;94812.00;;;;7391227;19;20145;-72
2022/07/06 08:10:57;;;;;;;4.47;2.92;;;;;20.60;94814.00;;;;7393389;19;20642;-74
2022/07/06 08:13:44;;;;;;;6.65;2.80;;;;;20.70;94819.00;;;;7396248;19;20449;-73
2022/07/06 08:16:19;;;;;;;5.53;3.05;;;;;20.70;94818.00;;;;7394976;19;20120;-74
2022/07/06 08:18:49;;;;;;;5.05;3.08;;;;;20.70;94816.00;;;;7392341;19;20152;-74
2022/07/06 08:21:17;;;;;;;5.68;3.10;;;;;20.90;94811.00;;;;7395238;19;20526;-74
2022/07/06 08:23:55;;;;;;;7.05;3.22;;;;;20.70;94810.00;;;;7395942;19;20157;-74
2022/07/06 08:26:25;;;;;;;9.23;3.22;;;;;20.70;94812.00;;;;7391368;19;20162;-73
2022/07/06 08:29:01;;;;;;;4.68;2.80;;;;;21.10;94817.00;;;;7391028;19;20471;-74
2022/07/06 08:31:29;;;;;;;6.18;2.92;;;;;21.20;94821.00;;;;7393883;19;20247;-74
2022/07/06 08:34:18;;;;;;;5.47;3.05;;;;;21.10;94821.00;;;;7391443;19;20149;-73
2022/07/06 08:37:00;;;;;;;7.63;3.90;;;;;21.10;94818.00;;;;7392761;19;20145;-75
2022/07/06 08:39:33;;;;;;;6.20;3.50;;;;;21.10;94814.00;;;;7395033;19;20149;-73
2022/07/06 08:42:09;;;;;;;4.25;3.47;;;;;21.60;94811.00;;;;7392438;19;20117;-74
2022/07/06 08:44:37;;;;;;;5.45;3.60;;;;;21.50;94812.00;;;;7390439;19;20579;-74
2022/07/06 08:47:07;;;;;;;4.15;3.33;;;;;21.30;94815.00;;;;7387224;19;20121;-74
2022/07/06 08:49:43;;;;;;;4.45;3.55;;;;;21.30;94819.00;;;;7394133;19;20598;-74
2022/07/06 08:52:13;;;;;;;9.45;3.45;;;;;21.30;94809.00;;;;7391902;19;20159;-73
2022/07/06 08:54:41;;;;;;;8.00;3.50;;;;;21.30;94810.00;;;;7394469;19;20137;-74
2022/07/06 08:57:16;;;;;;;5.13;3.30;;;;;21.00;94821.00;;;;7394275;19;20136;-74
2022/07/06 08:59:44;;;;;;;8.88;3.15;;;;;21.30;94822.00;;;;7396562;19;20140;-73
2022/07/06 09:02:13;;;;;;;6.03;3.05;;;;;21.70;94823.00;;;;7397391;19;20137;-73
2022/07/06 09:04:59;;;;;;;8.50;3.70;;;;;21.90;94823.00;;;;7395466;19;20188;-73
2022/07/06 09:07:35;;;;;;;9.00;3.40;;;;;21.80;94828.00;;;;7395385;19;20128;-74
2022/07/06 09:10:28;;;;;;;5.00;3.35;;;;;22.50;94826.00;;;;7388594;19;20148;-73
2022/07/06 09:13:12;;;;;;;5.95;3.38;;;;;22.50;94822.00;;;;7391462;19;20152;-73
2022/07/06 09:15:49;;;;;;;7.78;3.42;;;;;22.00;94820.00;;;;7394272;19;20140;-73
2022/07/06 09:18:35;;;;;;;8.40;3.47;;;;;22.10;94826.00;;;;7391694;19;20154;-73
2022/07/06 09:21:27;;;;;;;5.15;3.10;;;;;21.10;94829.00;;;;7392994;19;20148;-74
2022/07/06 09:23:59;;;;;;;11.13;3.90;;;;;20.90;94843.00;;;;7395484;19;20133;-74
2022/07/06 09:26:36;;;;;;;4.50;2.95;;;;;20.80;94842.00;;;;7388485;19;20207;-74
2022/07/06 09:29:07;;;;;;;3.88;2.90;;;;;21.20;94837.00;;;;7389951;19;20151;-72
2022/07/06 09:31:55;;;;;;;4.93;3.45;;;;;21.20;94843.00;;;;7392225;19;20554;-73
2022/07/06 09:34:23;;;;;;;7.47;3.20;;;;;21.40;94847.00;;;;7389087;19;20163;-73
2022/07/06 09:36:57;;;;;;;5.50;3.88;;;;;21.70;94843.00;;;;7390641;19;20148;-73
2022/07/06 09:39:29;;;;;;;7.03;3.30;;;;;21.40;94842.00;;;;7396223;19;20146;-74
2022/07/06 09:41:59;;;;;;;4.95;3.05;;;;;21.20;94850.00;;;;7399273;19;20132;-72
2022/07/06 09:44:42;;;;;;;5.35;3.35;;;;;21.40;94850.00;;;;7396498;19;20149;-73
2022/07/06 09:47:11;;;;;;;6.88;3.50;;;;;20.90;94852.00;;;;7398190;19;20144;-73
2022/07/06 09:49:48;;;;;;;7.18;4.30;;;;;21.00;94842.00;;;;7398176;19;20618;-74
2022/07/06 09:52:18;;;;;;;9.77;3.42;;;;;21.50;94855.00;;;;7401736;19;20216;-73
2022/07/06 09:54:57;;;;;;;5.15;3.60;;;;;21.50;94857.00;;;;7396738;19;20140;-72
2022/07/06 09:57:25;;;;;;;7.13;3.88;;;;;21.20;94856.00;;;;7397316;19;20133;-72
2022/07/06 09:59:58;;;;;;;6.38;2.95;;;;;21.20;94851.00;;;;7399262;19;20136;-74
2022/07/06 10:02:33;;;;;;;6.68;3.60;;;;;21.10;94851.00;;;;7397424;19;20147;-73
2022/07/06 10:05:07;;;;;;;4.47;3.25;;;;;21.90;94848.00;;;;7394598;19;20593;-70
2022/07/06 10:07:44;;;;;;;11.60;4.10;;;;;21.10;94872.00;;;;7399566;19;20124;-71
2022/07/06 10:10:12;;;;;;;9.20;4.22;;;;;21.20;94853.00;;;;7396366;19;20506;-72
2022/07/06 10:12:49;;;;;;;5.50;3.17;;;;;21.70;94859.00;;;;7398344;19;20133;-73
2022/07/06 10:15:27;;;;;;;7.47;3.53;;;;;21.50;94868.00;;;;7396045;19;20453;-72
2022/07/06 10:17:56;;;;;;;4.88;3.85;;;;;21.30;94876.00;;;;7398256;19;20627;-73
2022/07/06 10:20:36;;;;;;;8.57;3.88;;;;;21.90;94866.00;;;;7397044;19;20208;-72
2022/07/06 10:23:06;;;;;;;10.02;3.95;;;;;21.70;94861.00;;;;7395881;19;20145;-73
2022/07/06 10:25:41;;;;;;;6.40;3.78;;;;;21.40;94863.00;;;;7397682;19;20128;-73
2022/07/06 10:28:14;;;;;;;8.00;4.10;;;;;22.10;94869.00;;;;7397109;19;20144;-73
2022/07/06 10:30:52;;;;;;;8.18;4.03;;;;;22.50;94862.00;;;;7393772;19;20476;-74
2022/07/06 10:33:20;;;;;;;5.80;3.30;;;;;22.60;94859.00;;;;7396434;19;20143;-72
2022/07/06 10:35:56;;;;;;;6.70;3.40;;;;;21.80;94864.00;;;;7397321;19;20603;-73
2022/07/06 10:38:33;;;;;;;5.72;3.17;;;;;22.10;94858.00;;;;7395171;19;20148;-72
2022/07/06 10:41:06;;;;;;;5.57;3.58;;;;;22.80;94857.00;;;;7398668;19;20143;-73
2022/07/06 10:43:45;;;;;;;6.93;3.25;;;;;22.70;94864.00;;;;7398101;19;20141;-73
2022/07/06 10:46:19;;;;;;;5.82;2.95;;;;;22.80;94851.00;;;;7397066;19;20141;-72
2022/07/06 10:48:52;;;;;;;6.60;2.97;;;;;23.10;94855.00;;;;7394701;19;20144;-71
2022/07/06 10:51:27;;;;;;;8.77;3.42;;;;;22.90;94852.00;;;;7394946;19;20670;-72
2022/07/06 10:54:08;;;;;;;7.70;3.47;;;;;23.30;94857.00;;;;7397011;19;20196;-73
2022/07/06 10:56:45;;;;;;;4.78;3.17;;;;;22.40;94863.00;;;;7395200;19;20580;-72
2022/07/06 10:59:23;;;;;;;5.30;2.72;;;;;22.80;94855.00;;;;7394908;19;20153;-73
2022/07/06 11:02:16;;;;;;;5.55;3.22;;;;;23.30;94859.00;;;;7398449;19;20121;-74
2022/07/06 11:04:57;;;;;;;4.78;3.20;;;;;23.70;94863.00;;;;7393121;19;20207;-72
2022/07/06 11:07:24;;;;;;;5.47;3.30;;;;;23.20;94873.00;;;;7395909;19;20154;-72
2022/07/06 11:10:02;;;;;;;6.10;3.58;;;;;22.60;94879.00;;;;7394728;19;20165;-72
2022/07/06 11:12:30;;;;;;;6.55;2.97;;;;;21.90;94861.00;;;;7393123;19;20583;-71
2022/07/06 11:15:01;;;;;;;6.10;3.10;;;;;22.80;94852.00;;;;7395543;19;20136;-75
2022/07/06 11:17:43;;;;;;;4.07;3.05;;;;;22.50;94858.00;;;;7397212;19;20124;-72
2022/07/06 11:20:14;;;;;;;5.43;2.90;;;;;22.70;94852.00;;;;7399488;19;20139;-73
2022/07/06 11:22:51;;;;;;;6.60;2.75;;;;;23.20;94859.00;;;;7396070;19;20500;-74
2022/07/06 11:25:19;;;;;;;11.80;3.42;;;;;23.50;94853.00;;;;7397037;19;20145;-75
2022/07/06 11:27:47;;;;;;;6.00;3.42;;;;;23.70;94855.00;;;;7398002;19;20592;-74
2022/07/06 11:30:21;;;;;;;4.35;2.65;;;;;23.40;94852.00;;;;7391090;19;20146;-75
2022/07/06 11:32:49;;;;;;;7.53;3.30;;;;;23.10;94845.00;;;;7394250;19;20671;-75
2022/07/06 11:35:26;;;;;;;7.80;2.95;;;;;23.60;94845.00;;;;7392648;19;20157;-75
2022/07/06 11:38:20;;;;;;;4.57;2.75;;;;;24.10;94829.00;;;;7396248;19;20577;-76
2022/07/06 11:40:55;;;;;;;3.95;2.72;;;;;23.00;94853.00;;;;7394208;19;20468;-75
2022/07/06 11:43:32;;;;;;;6.50;2.58;;;;;22.60;94851.00;;;;7395295;19;20620;-75
2022/07/06 11:46:00;;;;;;;8.60;3.38;;;;;22.60;94850.00;;;;7392688;19;20132;-75
2022/07/06 11:48:31;;;;;;;6.45;2.72;;;;;22.40;94847.00;;;;7389039;19;20611;-74
2022/07/06 11:51:06;;;;;;;5.75;3.10;;;;;21.90;94853.00;;;;7387389;19;20159;-73
2022/07/06 11:53:36;;;;;;;5.88;3.38;;;;;22.70;94859.00;;;;7392336;19;20140;-75
2022/07/06 11:56:04;;;;;;;6.18;3.30;;;;;22.40;94851.00;;;;7393565;19;20158;-75
2022/07/06 11:58:42;;;;;;;6.57;3.03;;;;;21.80;94841.00;;;;7393126;19;20145;-74
2022/07/06 12:01:13;;;;;;;5.65;3.13;;;;;22.90;94835.00;;;;7392826;19;20242;-73
2022/07/06 12:03:46;;;;;;;8.82;3.10;;;;;23.20;94830.00;;;;7393069;19;20496;-73
2022/07/06 12:06:23;;;;;;;3.60;2.65;;;;;23.10;94858.00;;;;7393298;19;20551;-72
2022/07/06 12:09:03;;;;;;;3.88;2.58;;;;;21.70;94834.00;;;;7394095;19;20145;-72
2022/07/06 12:11:33;;;;;;;4.97;2.75;;;;;22.10;94836.00;;;;7394070;19;20176;-71
2022/07/06 12:14:19;;;;;;;5.85;2.80;;;;;23.00;94829.00;;;;7394253;19;20153;-73
2022/07/06 12:16:50;;;;;;;5.70;2.80;;;;;23.00;94847.00;;;;7392291;19;20135;-73
2022/07/06 12:19:25;;;;;;;5.38;2.92;;;;;21.90;94833.00;;;;7390123;19;20149;-73
2022/07/06 12:21:53;;;;;;;4.55;2.80;;;;;21.60;94828.00;;;;7390048;19;20502;-75
2022/07/06 12:24:28;;;;;;;3.83;2.42;;;;;21.90;94828.00;;;;7386003;19;20570;-74
2022/07/06 12:27:17;;;;;;;5.07;2.63;;;;;21.90;94827.00;;;;7389550;19;20590;-73
2022/07/06 12:29:47;;;;;;;2.97;2.40;;;;;21.90;94828.00;;;;7388618;19;20148;-71
2022/07/06 12:32:22;;;;;;;3.47;2.35;;;;;22.10;94821.00;;;;7387186;19;20906;-73
2022/07/06 12:35:06;;;;;;;4.35;2.60;;;;;22.50;94829.00;;;;7387943;19;20525;-75
2022/07/06 12:37:57;;;;;;;4.18;2.75;;;;;22.30;94835.00;;;;7393866;19;20144;-72
2022/07/06 12:40:27;;;;;;;4.40;2.78;;;;;22.30;94825.00;;;;7392485;19;20125;-74
2022/07/06 12:43:02;;;;;;;8.30;2.80;;;;;22.60;94820.00;;;;7392557;19;20537;-74
2022/07/06 12:45:32;;;;;;;3.63;2.40;;;;;23.50;94816.00;;;;7393144;19;20145;-71
2022/07/06 12:48:01;;;;;;;5.75;2.33;;;;;23.00;94817.00;;;;7394036;19;20520;-73
2022/07/06 12:50:37;;;;;;;5.30;2.80;;;;;22.70;94826.00;;;;7391000;19;20144;-73
2022/07/06 12:53:25;;;;;;;9.73;3.00;;;;;22.10;94812.00;;;;7392787;19;20884;-72